Time;durP1;ratioP1;P1;durP2;ratioP2;P2;SDS_P1;SDS_P2;PMS_P1;PMS_P2;Temp;Humidity;BMP_temperature;BMP_pressure;BME280_temperature;BME280_humidity;BME280_pressure;Samples;Min_cycle;Max_cycle;Signal;HPM_P1;HPM_P2
2022/12/12 00:01:57;;;;;;;13.07;8.63;;;22.40;39.50;;;;;;6080050;28;80692;-65
2022/12/12 00:04:57;;;;;;;10.82;7.75;;;22.40;39.50;;;;;;6071270;28;80623;-63
2022/12/12 00:07:58;;;;;;;10.25;7.82;;;22.40;39.90;;;;;;6072560;28;81197;-64
2022/12/12 00:10:58;;;;;;;11.90;7.40;;;22.40;39.20;;;;;;6078464;28;81345;-64
2022/12/12 00:13:59;;;;;;;13.88;8.23;;;22.30;39.10;;;;;;6080445;28;80394;-64
2022/12/12 00:17:01;;;;;;;12.85;8.10;;;22.30;39.20;;;;;;6079833;28;82308;-65
2022/12/12 00:20:02;;;;;;;10.80;7.60;;;22.30;39.10;;;;;;6076768;28;81355;-64
2022/12/12 00:23:02;;;;;;;12.63;8.02;;;22.30;39.00;;;;;;6075382;28;80501;-63
2022/12/12 00:26:03;;;;;;;12.30;8.38;;;22.30;38.90;;;;;;6080004;28;80751;-63
2022/12/12 00:29:04;;;;;;;11.55;7.93;;;22.30;38.90;;;;;;6071328;28;80977;-58
2022/12/12 00:32:04;;;;;;;10.93;7.70;;;22.30;38.90;;;;;;6076802;28;80935;-57
2022/12/12 00:35:05;;;;;;;10.30;7.72;;;22.30;39.20;;;;;;6076671;28;82522;-58
2022/12/12 00:38:05;;;;;;;11.02;8.23;;;22.30;39.00;;;;;;6077042;28;80802;-58
2022/12/12 00:41:06;;;;;;;10.95;7.57;;;22.30;38.90;;;;;;6057002;28;85529;-58
2022/12/12 00:44:06;;;;;;;12.40;8.30;;;22.30;39.00;;;;;;6061945;28;84884;-60
2022/12/12 00:47:07;;;;;;;10.27;7.45;;;22.20;39.10;;;;;;6077687;28;80943;-57
2022/12/12 00:50:07;;;;;;;10.77;7.47;;;22.30;39.10;;;;;;6071221;28;80805;-58
2022/12/12 00:53:08;;;;;;;10.70;7.53;;;22.30;39.30;;;;;;6065087;28;81775;-58
2022/12/12 00:56:08;;;;;;;11.93;8.07;;;22.20;39.10;;;;;;6058008;28;81175;-56
2022/12/12 00:59:09;;;;;;;11.65;7.75;;;22.20;39.10;;;;;;6063990;28;84386;-58
2022/12/12 01:02:09;;;;;;;12.45;7.72;;;22.20;39.00;;;;;;6058111;28;80015;-57
2022/12/12 01:05:10;;;;;;;13.00;8.45;;;22.20;39.00;;;;;;6068494;28;80840;-57
2022/12/12 01:08:10;;;;;;;10.98;7.57;;;22.20;39.00;;;;;;6066112;28;80535;-59
2022/12/12 01:11:11;;;;;;;11.93;7.93;;;22.20;39.00;;;;;;6064156;28;86747;-59
2022/12/12 01:14:11;;;;;;;12.10;7.93;;;22.20;39.00;;;;;;6052684;28;81509;-59
2022/12/12 01:17:12;;;;;;;12.55;8.00;;;22.20;38.90;;;;;;6056840;28;80949;-59
2022/12/12 01:20:12;;;;;;;12.20;7.72;;;22.20;39.30;;;;;;6052416;28;86557;-58
2022/12/12 01:23:13;;;;;;;11.23;7.18;;;22.20;39.10;;;;;;6051188;28;81376;-58
2022/12/12 01:26:13;;;;;;;9.68;6.97;;;22.20;39.80;;;;;;6053280;28;80649;-59
2022/12/12 01:29:14;;;;;;;11.48;7.55;;;22.20;40.20;;;;;;6071271;28;85070;-57
2022/12/12 01:32:14;;;;;;;9.45;6.55;;;22.20;39.80;;;;;;6056007;28;81093;-58
2022/12/12 01:35:15;;;;;;;10.35;7.32;;;22.20;40.10;;;;;;6066324;28;80652;-58
2022/12/12 01:38:15;;;;;;;10.70;7.20;;;22.20;39.60;;;;;;6057485;28;81491;-55
2022/12/12 01:41:16;;;;;;;11.05;7.20;;;22.10;39.30;;;;;;6062633;28;82751;-64
2022/12/12 01:44:16;;;;;;;12.15;7.38;;;22.20;39.70;;;;;;6080333;28;85275;-64
2022/12/12 01:47:17;;;;;;;10.88;6.97;;;22.20;39.60;;;;;;6078634;28;81099;-62
2022/12/12 01:50:17;;;;;;;10.95;6.50;;;22.20;39.50;;;;;;6072412;28;80584;-64
2022/12/12 01:53:18;;;;;;;12.23;7.82;;;22.10;39.30;;;;;;6054448;28;81334;-64
2022/12/12 01:56:18;;;;;;;10.60;7.45;;;22.10;39.10;;;;;;6078406;28;80141;-63
2022/12/12 01:59:19;;;;;;;10.05;7.32;;;22.10;39.00;;;;;;6060729;28;80486;-62
2022/12/12 02:02:19;;;;;;;9.82;7.00;;;22.10;39.20;;;;;;6056938;28;80356;-63
2022/12/12 02:05:20;;;;;;;11.60;7.65;;;22.10;39.30;;;;;;6063995;28;80583;-64
2022/12/12 02:08:21;;;;;;;10.95;7.38;;;22.10;39.20;;;;;;6067699;28;88659;-62
2022/12/12 02:11:21;;;;;;;11.10;7.22;;;22.10;39.10;;;;;;6071665;28;81132;-63
2022/12/12 02:14:22;;;;;;;11.90;7.53;;;22.10;39.00;;;;;;6076986;28;82789;-63
2022/12/12 02:17:22;;;;;;;10.68;7.20;;;22.10;39.60;;;;;;6081088;28;80816;-67
2022/12/12 02:20:23;;;;;;;10.05;7.13;;;22.10;38.70;;;;;;6079751;28;82161;-65
2022/12/12 02:23:23;;;;;;;11.30;7.47;;;22.10;39.00;;;;;;6066922;28;80846;-65
2022/12/12 02:26:24;;;;;;;9.45;6.88;;;22.10;39.00;;;;;;6073184;28;80394;-65
2022/12/12 02:29:24;;;;;;;10.00;6.72;;;22.10;39.00;;;;;;6066763;28;80716;-63
2022/12/12 02:32:25;;;;;;;12.65;7.53;;;22.10;39.10;;;;;;6052884;28;80248;-63
2022/12/12 02:35:26;;;;;;;10.30;6.78;;;22.10;39.00;;;;;;6068688;28;81893;-64
2022/12/12 02:38:26;;;;;;;9.43;6.70;;;22.10;39.20;;;;;;6054786;28;80478;-64
2022/12/12 02:41:27;;;;;;;10.40;7.10;;;22.10;39.10;;;;;;6054077;28;81420;-61
2022/12/12 02:44:27;;;;;;;10.45;6.85;;;22.10;39.20;;;;;;6071294;28;83133;-65
2022/12/12 02:47:28;;;;;;;10.38;7.28;;;22.00;39.30;;;;;;6095046;28;80590;-65
2022/12/12 02:50:28;;;;;;;9.95;6.93;;;22.00;39.30;;;;;;6080523;28;81088;-66
2022/12/12 02:53:29;;;;;;;11.40;7.25;;;22.00;39.30;;;;;;6083702;28;81338;-66
2022/12/12 02:56:29;;;;;;;8.60;6.28;;;22.00;39.20;;;;;;6083733;28;80463;-57
2022/12/12 02:59:30;;;;;;;9.52;6.70;;;22.00;39.40;;;;;;6080497;28;80573;-57
2022/12/12 03:02:30;;;;;;;9.70;6.93;;;22.00;39.30;;;;;;6083569;28;80923;-54
2022/12/12 03:08:50;;;;;;;8.85;6.38;;;22.00;39.00;;;;;;6081911;28;80771;-58
2022/12/12 03:11:50;;;;;;;9.27;6.18;;;22.00;39.10;;;;;;6080544;28;81001;-58
2022/12/12 03:14:51;;;;;;;10.82;6.65;;;22.00;39.10;;;;;;6078425;28;80691;-58
2022/12/12 03:17:52;;;;;;;8.60;6.25;;;22.00;39.00;;;;;;6081991;28;81401;-59
2022/12/12 03:20:52;;;;;;;7.25;5.32;;;22.00;39.00;;;;;;6080277;28;80952;-59
2022/12/12 03:23:53;;;;;;;6.85;5.28;;;22.00;39.40;;;;;;6066421;28;83855;-59
2022/12/12 03:26:53;;;;;;;8.02;5.63;;;22.00;39.60;;;;;;6070076;28;80518;-59
2022/12/12 03:29:54;;;;;;;8.13;6.00;;;22.00;39.60;;;;;;6064316;28;87144;-59
2022/12/12 03:32:54;;;;;;;9.10;5.88;;;22.00;39.90;;;;;;6067553;28;80653;-57
2022/12/12 03:35:55;;;;;;;6.88;5.20;;;22.00;39.50;;;;;;6080201;28;86360;-59
2022/12/12 03:38:56;;;;;;;7.95;5.93;;;22.00;39.30;;;;;;6081229;28;80349;-57
2022/12/12 03:41:56;;;;;;;8.77;5.88;;;22.00;39.50;;;;;;6080754;28;84616;-57
2022/12/12 03:44:57;;;;;;;7.30;5.65;;;22.00;39.70;;;;;;6079153;28;81375;-58
2022/12/12 03:47:57;;;;;;;9.40;5.32;;;22.00;39.20;;;;;;6077694;28;80937;-59
2022/12/12 03:50:58;;;;;;;9.38;5.70;;;22.00;39.10;;;;;;6075272;28;81427;-58
2022/12/12 03:53:58;;;;;;;8.68;6.32;;;22.00;39.10;;;;;;6056948;28;80397;-58
2022/12/12 03:56:59;;;;;;;9.48;6.30;;;22.00;39.50;;;;;;6071754;28;80452;-58
2022/12/12 04:00:00;;;;;;;8.95;6.07;;;22.00;39.10;;;;;;6072900;28;80592;-58
2022/12/12 04:03:00;;;;;;;11.45;6.72;;;22.00;39.30;;;;;;6078008;28;80948;-58
2022/12/12 04:12:58;;;;;;;8.52;5.82;;;22.00;39.30;;;;;;6072246;28;80990;-59
2022/12/12 04:15:58;;;;;;;7.75;5.28;;;22.00;39.30;;;;;;6068363;28;80550;-57
2022/12/12 04:18:59;;;;;;;7.65;5.32;;;22.00;39.60;;;;;;6080091;28;83286;-57
2022/12/12 04:25:18;;;;;;;7.18;5.55;;;22.10;38.30;;;;;;6068653;28;80929;-56
2022/12/12 04:28:19;;;;;;;7.40;5.60;;;22.10;38.10;;;;;;6064776;28;80557;-58
2022/12/12 04:31:19;;;;;;;7.53;5.78;;;22.20;38.10;;;;;;6066873;28;81331;-60
2022/12/12 04:34:20;;;;;;;8.05;5.85;;;22.20;37.70;;;;;;6076546;28;81602;-58
2022/12/12 04:37:20;;;;;;;7.47;5.32;;;22.30;37.60;;;;;;6081768;28;80538;-58
2022/12/12 04:40:21;;;;;;;8.65;6.10;;;22.30;37.40;;;;;;6077119;28;80633;-59
2022/12/12 04:43:21;;;;;;;9.93;5.72;;;22.30;37.10;;;;;;6079456;28;80675;-58
2022/12/12 04:46:22;;;;;;;7.85;5.72;;;22.40;36.90;;;;;;6066015;28;80387;-59
2022/12/12 04:49:22;;;;;;;7.63;5.30;;;22.40;36.70;;;;;;6069874;28;81280;-56
2022/12/12 04:52:23;;;;;;;8.00;5.75;;;22.40;36.50;;;;;;6071392;28;80939;-54
2022/12/12 04:55:23;;;;;;;7.40;5.82;;;22.50;36.50;;;;;;6069112;28;80987;-57
2022/12/12 04:58:24;;;;;;;7.13;5.03;;;22.50;36.30;;;;;;6077191;28;80858;-56
2022/12/12 05:01:24;;;;;;;10.63;5.25;;;22.50;36.60;;;;;;6075212;28;82083;-54
2022/12/12 05:04:25;;;;;;;10.02;5.25;;;22.60;36.20;;;;;;6067197;28;81902;-55
2022/12/12 05:07:25;;;;;;;8.02;5.63;;;22.60;36.50;;;;;;6067766;28;80774;-59
2022/12/12 05:10:26;;;;;;;8.88;5.57;;;22.60;36.90;;;;;;6042468;28;85581;-57
2022/12/12 05:13:26;;;;;;;9.43;5.32;;;22.70;37.10;;;;;;6064057;28;80344;-57
2022/12/12 05:16:27;;;;;;;8.77;5.60;;;22.70;37.10;;;;;;6053374;28;85507;-59
2022/12/12 05:19:27;;;;;;;9.10;6.05;;;22.70;36.80;;;;;;6074763;28;81268;-62
2022/12/12 05:22:28;;;;;;;8.80;6.05;;;22.80;36.70;;;;;;6069956;28;86370;-59
2022/12/12 05:25:29;;;;;;;7.72;5.82;;;22.80;36.90;;;;;;6072440;28;80102;-60
2022/12/12 05:28:29;;;;;;;9.50;6.28;;;22.80;36.70;;;;;;6077089;28;80631;-60
2022/12/12 05:31:30;;;;;;;9.68;6.53;;;22.80;36.50;;;;;;6065060;28;80778;-60
2022/12/12 05:34:30;;;;;;;10.70;5.60;;;22.80;36.40;;;;;;6062590;28;81110;-60
2022/12/12 05:37:31;;;;;;;11.15;5.78;;;22.80;36.40;;;;;;6070063;28;81184;-58
2022/12/12 05:40:32;;;;;;;10.68;5.53;;;22.90;36.60;;;;;;6071008;28;81355;-56
2022/12/12 05:43:32;;;;;;;9.45;5.60;;;22.90;36.50;;;;;;6074469;28;81163;-56
2022/12/12 05:46:33;;;;;;;6.65;5.55;;;22.90;36.60;;;;;;6076873;28;80460;-58
2022/12/12 05:49:33;;;;;;;9.75;6.32;;;22.90;36.60;;;;;;6079437;28;83801;-58
2022/12/12 05:52:34;;;;;;;7.90;6.03;;;22.90;36.70;;;;;;6075130;28;80586;-57
2022/12/12 05:55:35;;;;;;;8.98;6.30;;;23.00;36.60;;;;;;6077591;28;82765;-58
2022/12/12 05:58:35;;;;;;;10.70;6.30;;;22.90;36.60;;;;;;6077117;28;81386;-58
2022/12/12 06:01:36;;;;;;;7.88;5.47;;;23.00;36.50;;;;;;6079558;28;83447;-58
2022/12/12 06:04:36;;;;;;;7.97;5.68;;;23.00;36.40;;;;;;6074658;28;86058;-61
2022/12/12 06:07:37;;;;;;;8.27;5.65;;;23.00;36.60;;;;;;6077305;28;81284;-59
2022/12/12 06:10:38;;;;;;;8.18;6.03;;;23.00;36.40;;;;;;6076048;28;83616;-57
2022/12/12 06:13:39;;;;;;;11.13;6.95;;;23.00;36.10;;;;;;6079369;28;80970;-58
2022/12/12 06:16:39;;;;;;;8.40;6.05;;;23.00;36.00;;;;;;6073494;28;84732;-57
2022/12/12 06:19:40;;;;;;;9.73;6.93;;;23.00;36.20;;;;;;6068350;28;82601;-58
2022/12/12 06:22:41;;;;;;;9.88;6.70;;;23.00;36.10;;;;;;6068974;28;80552;-59
2022/12/12 06:25:41;;;;;;;10.98;7.28;;;23.00;36.00;;;;;;6066231;28;80514;-58
2022/12/12 06:28:42;;;;;;;8.02;6.05;;;23.00;35.70;;;;;;6076058;28;86317;-59
2022/12/12 06:31:42;;;;;;;7.78;6.07;;;23.00;35.70;;;;;;6067791;28;80853;-62
2022/12/12 06:34:43;;;;;;;6.82;5.57;;;23.00;36.20;;;;;;6057069;28;84900;-61
2022/12/12 06:37:43;;;;;;;7.10;4.85;;;23.00;37.40;;;;;;6059362;28;80806;-63
2022/12/12 06:40:44;;;;;;;6.35;5.00;;;22.90;38.70;;;;;;6069668;28;82802;-60
2022/12/12 06:43:45;;;;;;;6.78;5.10;;;22.90;38.50;;;;;;6063356;28;83856;-62
2022/12/12 06:46:45;;;;;;;5.88;3.95;;;22.90;39.00;;;;;;6075866;28;83893;-62
2022/12/12 06:49:46;;;;;;;8.68;4.70;;;22.80;39.20;;;;;;6080038;28;80405;-63
2022/12/12 06:52:47;;;;;;;6.25;4.68;;;22.80;40.00;;;;;;6073541;28;83221;-64
2022/12/12 06:55:47;;;;;;;7.35;4.38;;;22.70;40.40;;;;;;6076161;28;88715;-69
2022/12/12 06:58:48;;;;;;;5.50;4.03;;;22.70;40.70;;;;;;6065697;28;80848;-67
2022/12/12 07:01:48;;;;;;;6.18;4.38;;;22.70;41.00;;;;;;6058878;28;87710;-66
2022/12/12 07:04:49;;;;;;;9.57;4.10;;;22.60;40.70;;;;;;6073486;28;81518;-67
2022/12/12 07:07:49;;;;;;;5.60;4.00;;;22.60;41.00;;;;;;6074633;28;84511;-69
2022/12/12 07:10:50;;;;;;;5.75;4.38;;;22.60;41.10;;;;;;6077992;28;80711;-68
2022/12/12 07:13:50;;;;;;;12.10;6.55;;;22.50;41.40;;;;;;6075848;28;80528;-66
2022/12/12 07:16:51;;;;;;;20.13;10.20;;;22.50;41.30;;;;;;6074119;28;80362;-65
2022/12/12 07:19:51;;;;;;;20.33;11.10;;;22.40;41.60;;;;;;6073006;28;82753;-65
2022/12/12 07:22:52;;;;;;;24.33;13.23;;;22.40;41.70;;;;;;6066427;28;83044;-65
2022/12/12 07:25:52;;;;;;;24.90;12.82;;;22.30;41.90;;;;;;6063159;28;83389;-62
2022/12/12 07:28:53;;;;;;;24.77;13.27;;;22.30;42.10;;;;;;6074434;28;83211;-63
2022/12/12 07:31:53;;;;;;;24.35;12.95;;;22.30;42.30;;;;;;6072058;28;82804;-67
2022/12/12 07:34:54;;;;;;;28.35;15.30;;;22.30;42.40;;;;;;6075410;28;83436;-67
2022/12/12 07:37:55;;;;;;;38.38;17.35;;;22.30;42.80;;;;;;6071676;28;86357;-68
2022/12/12 07:40:55;;;;;;;33.47;15.18;;;22.20;42.70;;;;;;6074565;28;83118;-64
2022/12/12 07:43:56;;;;;;;27.30;13.80;;;22.30;42.80;;;;;;6074263;28;83852;-64
2022/12/12 07:46:57;;;;;;;25.77;12.25;;;22.20;42.50;;;;;;6079216;28;83218;-68
2022/12/12 07:49:57;;;;;;;21.33;10.65;;;22.20;43.20;;;;;;6060154;28;86042;-65
2022/12/12 07:52:58;;;;;;;16.80;9.73;;;22.20;43.20;;;;;;6065202;28;83946;-68
2022/12/12 07:55:58;;;;;;;16.60;9.50;;;22.20;42.60;;;;;;6071900;28;83283;-71
2022/12/12 07:58:59;;;;;;;17.75;8.48;;;22.20;42.90;;;;;;6071375;28;83865;-75
2022/12/12 08:02:00;;;;;;;13.63;7.32;;;22.20;43.30;;;;;;6076484;28;80921;-72
2022/12/12 08:05:00;;;;;;;14.88;6.90;;;22.20;43.40;;;;;;6074252;28;81250;-70
2022/12/12 08:08:01;;;;;;;15.57;7.07;;;22.20;43.70;;;;;;6073645;28;80629;-66
2022/12/12 08:11:01;;;;;;;13.18;6.57;;;22.20;44.00;;;;;;6074757;28;81140;-66
2022/12/12 08:14:02;;;;;;;10.75;6.65;;;22.20;44.00;;;;;;6064202;28;82547;-69
2022/12/12 08:17:02;;;;;;;9.55;6.15;;;22.20;43.90;;;;;;6072401;28;80386;-67
2022/12/12 08:20:03;;;;;;;11.73;5.78;;;22.20;44.00;;;;;;6093437;28;82295;-62
2022/12/12 08:23:03;;;;;;;10.23;4.97;;;22.20;43.90;;;;;;6066927;28;83330;-68
2022/12/12 08:26:04;;;;;;;7.97;5.43;;;22.10;44.30;;;;;;6071546;28;80395;-61
2022/12/12 08:29:04;;;;;;;12.10;6.30;;;22.20;44.10;;;;;;6064139;28;80727;-60
2022/12/12 08:32:05;;;;;;;10.77;6.03;;;22.20;43.80;;;;;;6067746;28;80611;-59
2022/12/12 08:35:05;;;;;;;16.38;7.47;;;22.20;44.40;;;;;;6067135;28;80471;-60
2022/12/12 08:38:06;;;;;;;15.15;6.82;;;22.20;44.70;;;;;;6069533;28;82742;-60
2022/12/12 08:41:06;;;;;;;12.88;6.20;;;22.30;45.80;;;;;;6077553;28;85279;-61
2022/12/12 08:44:07;;;;;;;8.85;5.55;;;22.30;46.30;;;;;;6078493;28;80622;-65
2022/12/12 08:47:07;;;;;;;9.35;5.45;;;22.40;46.40;;;;;;6079562;28;84217;-64
2022/12/12 08:50:08;;;;;;;12.80;5.93;;;22.40;46.80;;;;;;6074021;28;80597;-65
2022/12/12 08:53:09;;;;;;;9.43;5.50;;;22.40;46.70;;;;;;6047954;28;82077;-64
2022/12/12 08:56:09;;;;;;;11.35;6.10;;;22.50;47.70;;;;;;6060182;28;83081;-65
2022/12/12 08:59:10;;;;;;;8.35;5.32;;;22.50;48.10;;;;;;6067055;28;80408;-63
2022/12/12 09:02:10;;;;;;;8.32;5.32;;;22.50;48.40;;;;;;6078803;28;83384;-60
2022/12/12 09:05:11;;;;;;;9.13;5.20;;;22.50;48.30;;;;;;6068728;28;80979;-60
2022/12/12 09:08:11;;;;;;;8.07;5.00;;;22.60;48.60;;;;;;6067634;28;85765;-62
2022/12/12 09:11:13;;;;;;;6.97;4.55;;;22.60;48.70;;;;;;6070781;28;81722;-61
2022/12/12 09:14:13;;;;;;;7.70;4.57;;;22.60;48.40;;;;;;6065920;28;85042;-61
2022/12/12 09:17:14;;;;;;;8.05;4.75;;;22.60;48.20;;;;;;6068357;28;80293;-61
2022/12/12 09:20:14;;;;;;;6.05;4.07;;;22.60;47.90;;;;;;6074338;28;84025;-61
2022/12/12 09:23:15;;;;;;;7.95;5.35;;;22.60;47.80;;;;;;6070219;28;82112;-62
2022/12/12 09:26:16;;;;;;;5.82;4.22;;;22.70;47.40;;;;;;6063599;28;83811;-62
2022/12/12 09:29:17;;;;;;;7.40;4.60;;;22.70;47.20;;;;;;6061808;28;86372;-61
2022/12/12 09:32:17;;;;;;;6.90;4.43;;;22.70;47.00;;;;;;6067520;28;80835;-63
2022/12/12 09:35:18;;;;;;;8.02;4.50;;;22.70;46.70;;;;;;6071437;28;80968;-61
2022/12/12 09:38:19;;;;;;;6.93;4.22;;;22.70;46.30;;;;;;6075657;28;83038;-61
2022/12/12 09:41:20;;;;;;;6.18;4.20;;;22.70;45.90;;;;;;6076990;28;80706;-69
2022/12/12 09:44:21;;;;;;;6.30;4.78;;;22.80;45.40;;;;;;6076058;28;82622;-70
2022/12/12 09:47:22;;;;;;;7.97;3.97;;;22.80;44.80;;;;;;6075561;28;81131;-66
2022/12/12 09:50:22;;;;;;;6.18;4.55;;;22.80;44.40;;;;;;6070339;28;80511;-63
2022/12/12 09:53:23;;;;;;;6.45;4.43;;;22.80;43.70;;;;;;6054914;28;81108;-63
2022/12/12 09:56:23;;;;;;;6.38;4.35;;;22.80;43.30;;;;;;6059315;28;81630;-64
2022/12/12 09:59:24;;;;;;;7.97;4.10;;;22.80;42.60;;;;;;6056662;28;81003;-62
2022/12/12 10:02:24;;;;;;;5.65;4.13;;;22.80;42.30;;;;;;6065635;28;81361;-62
2022/12/12 10:05:24;;;;;;;5.97;4.53;;;22.80;41.80;;;;;;6068569;28;80361;-64
2022/12/12 10:08:25;;;;;;;6.80;4.22;;;22.80;41.20;;;;;;6046275;28;82193;-66
2022/12/12 10:14:45;;;;;;;6.00;4.30;;;22.80;41.60;;;;;;6036466;28;82476;-65
2022/12/12 10:17:46;;;;;;;6.18;4.45;;;22.80;41.10;;;;;;5787353;28;83106;-67
2022/12/12 10:20:46;;;;;;;5.47;3.85;;;22.80;40.40;;;;;;6077948;28;82155;-65
2022/12/12 10:23:47;;;;;;;5.65;4.00;;;22.80;40.10;;;;;;6068022;28;82417;-66
2022/12/12 10:26:47;;;;;;;6.82;4.70;;;22.80;40.30;;;;;;6071131;28;85460;-65
2022/12/12 10:29:48;;;;;;;5.82;4.47;;;22.80;40.60;;;;;;6069204;28;80526;-70
2022/12/12 10:32:48;;;;;;;8.27;4.88;;;22.70;39.50;;;;;;6069689;28;81509;-68
2022/12/12 10:35:49;;;;;;;5.75;4.00;;;22.70;39.20;;;;;;6060732;28;82244;-75
2022/12/12 10:38:49;;;;;;;6.90;4.45;;;22.70;39.30;;;;;;6072658;28;81127;-76
2022/12/12 10:41:50;;;;;;;7.50;4.18;;;22.70;39.60;;;;;;6060459;28;80795;-76
2022/12/12 10:44:50;;;;;;;8.77;4.55;;;22.70;39.60;;;;;;6067692;28;81195;-74
2022/12/12 10:47:51;;;;;;;7.40;4.88;;;22.70;39.40;;;;;;6068100;28;86838;-61
2022/12/12 10:50:51;;;;;;;9.25;4.75;;;22.60;39.40;;;;;;6072378;28;80836;-73
2022/12/12 10:53:52;;;;;;;6.97;5.25;;;22.70;39.20;;;;;;6068075;28;81473;-66
2022/12/12 10:56:53;;;;;;;8.32;5.22;;;22.60;38.90;;;;;;6072480;28;84280;-65
2022/12/12 10:59:54;;;;;;;10.40;6.03;;;22.60;39.00;;;;;;6060274;28;81751;-67
2022/12/12 11:02:54;;;;;;;10.25;6.00;;;22.60;38.80;;;;;;6067053;28;80647;-64
2022/12/12 11:05:55;;;;;;;9.45;5.95;;;22.60;38.60;;;;;;6070679;28;81511;-64
2022/12/12 11:08:55;;;;;;;7.20;5.75;;;22.50;38.50;;;;;;6076253;28;80241;-66
2022/12/12 11:11:56;;;;;;;6.97;4.93;;;22.50;38.60;;;;;;6067953;28;88011;-74
2022/12/12 11:14:56;;;;;;;7.90;5.47;;;22.50;38.50;;;;;;6079480;28;81161;-76
2022/12/12 11:17:57;;;;;;;8.70;5.63;;;22.50;38.50;;;;;;6079895;28;80394;-74
2022/12/12 11:20:57;;;;;;;8.68;6.25;;;22.50;38.50;;;;;;6079548;28;80394;-76
2022/12/12 11:23:58;;;;;;;11.57;5.50;;;22.50;38.50;;;;;;6074371;28;86055;-74
2022/12/12 11:26:58;;;;;;;8.43;5.03;;;22.40;38.40;;;;;;6078014;28;80781;-74
2022/12/12 11:29:59;;;;;;;6.65;5.07;;;22.40;38.40;;;;;;6073213;28;82484;-78
2022/12/12 11:32:59;;;;;;;7.68;5.03;;;22.40;38.40;;;;;;6069754;28;85124;-74
2022/12/12 11:36:02;;;;;;;8.98;5.20;;;22.40;38.60;;;;;;6076476;28;80406;-76
2022/12/12 11:39:03;;;;;;;8.85;5.80;;;22.40;38.50;;;;;;6076409;28;80883;-74
2022/12/12 11:42:04;;;;;;;7.47;4.95;;;22.40;38.50;;;;;;6079967;28;83707;-75
2022/12/12 11:45:04;;;;;;;7.00;5.22;;;22.40;38.60;;;;;;6089256;28;83301;-74
2022/12/12 11:48:05;;;;;;;8.60;5.63;;;22.40;38.80;;;;;;6076931;28;83480;-64
2022/12/12 11:51:05;;;;;;;8.07;5.20;;;22.40;38.50;;;;;;6069124;28;84062;-63
2022/12/12 11:54:06;;;;;;;7.53;5.43;;;22.30;38.60;;;;;;6075184;28;85947;-63
2022/12/12 11:57:06;;;;;;;6.47;5.00;;;22.40;38.20;;;;;;6070695;28;80493;-63
2022/12/12 12:00:08;;;;;;;7.03;5.00;;;22.40;38.10;;;;;;6075947;28;81130;-61
2022/12/12 12:03:08;;;;;;;9.05;5.70;;;22.40;38.20;;;;;;6075918;28;82674;-61
2022/12/12 12:06:09;;;;;;;12.27;4.97;;;22.40;38.10;;;;;;6055868;28;81233;-65
2022/12/12 12:09:09;;;;;;;8.45;5.63;;;22.50;37.90;;;;;;6071326;28;80652;-64
2022/12/12 12:12:10;;;;;;;10.75;5.55;;;22.50;37.70;;;;;;6070430;28;80779;-63
2022/12/12 12:15:10;;;;;;;7.80;5.40;;;22.60;37.50;;;;;;6076242;28;80914;-63
2022/12/12 12:18:11;;;;;;;7.53;5.38;;;22.60;37.40;;;;;;6075141;28;80396;-67
2022/12/12 12:21:12;;;;;;;9.40;6.22;;;22.60;37.40;;;;;;6076247;28;82719;-61
2022/12/12 12:24:13;;;;;;;8.00;5.25;;;22.70;37.50;;;;;;6074312;28;85600;-62
2022/12/12 12:27:14;;;;;;;10.52;5.53;;;22.80;37.90;;;;;;6076636;28;80631;-62
2022/12/12 12:30:14;;;;;;;8.95;5.45;;;22.80;38.00;;;;;;6077989;28;80463;-63
2022/12/12 12:33:15;;;;;;;7.82;5.55;;;22.80;37.70;;;;;;6067971;28;80566;-62
2022/12/12 12:36:16;;;;;;;7.63;5.72;;;22.80;37.60;;;;;;6072611;28;80791;-63
2022/12/12 12:39:16;;;;;;;6.65;5.10;;;22.90;37.70;;;;;;6073597;28;80259;-63
2022/12/12 12:42:16;;;;;;;6.88;5.35;;;22.90;37.70;;;;;;6080543;28;81074;-64
2022/12/12 12:45:17;;;;;;;7.80;5.28;;;22.90;37.70;;;;;;6080388;28;80452;-64
2022/12/12 12:48:18;;;;;;;7.00;5.43;;;22.90;37.60;;;;;;5589288;28;84718;-63
2022/12/12 12:51:20;;;;;;;8.82;5.63;;;22.90;37.50;;;;;;5377260;28;83830;-63
2022/12/12 12:54:24;;;;;;;8.38;4.72;;;23.00;37.70;;;;;;5379932;28;88227;-66
2022/12/12 12:57:26;;;;;;;7.80;5.40;;;23.00;37.40;;;;;;5386613;28;84207;-66
2022/12/12 13:00:31;;;;;;;7.50;5.18;;;23.10;37.20;;;;;;5396216;28;84531;-62
2022/12/12 13:03:32;;;;;;;6.13;4.75;;;23.10;37.00;;;;;;5401941;28;84013;-62
2022/12/12 13:06:33;;;;;;;6.82;5.15;;;23.10;37.00;;;;;;5367288;28;84453;-63
2022/12/12 13:09:36;;;;;;;8.15;5.15;;;23.20;37.00;;;;;;5370747;28;84538;-60
2022/12/12 13:12:38;;;;;;;6.47;4.85;;;23.20;37.40;;;;;;5381811;28;83565;-60
2022/12/12 13:15:40;;;;;;;6.40;4.78;;;23.20;36.90;;;;;;5361150;28;84912;-64
2022/12/12 13:18:42;;;;;;;5.28;4.53;;;23.20;36.60;;;;;;5376710;28;83323;-62
2022/12/12 13:21:44;;;;;;;5.68;4.90;;;23.20;36.40;;;;;;5383663;28;83249;-60
2022/12/12 13:24:46;;;;;;;9.15;5.70;;;23.20;36.40;;;;;;5388596;28;87097;-61
2022/12/12 13:27:47;;;;;;;8.20;5.38;;;23.20;36.30;;;;;;5377211;28;83195;-60
2022/12/12 13:30:49;;;;;;;5.68;4.80;;;23.20;36.30;;;;;;5366765;28;84288;-59
2022/12/12 13:33:52;;;;;;;9.38;4.57;;;23.10;36.10;;;;;;5369671;28;83993;-62
2022/12/12 13:36:55;;;;;;;7.72;4.30;;;23.20;36.30;;;;;;5378542;28;84132;-59
2022/12/12 13:39:55;;;;;;;6.57;4.78;;;23.20;36.30;;;;;;5401893;28;83523;-61
2022/12/12 13:42:56;;;;;;;9.57;5.00;;;23.10;36.40;;;;;;5409813;28;84731;-61
2022/12/12 13:45:58;;;;;;;6.95;4.60;;;23.10;37.10;;;;;;5380270;28;84219;-64
2022/12/12 13:48:58;;;;;;;7.43;3.97;;;23.10;37.70;;;;;;5790481;28;84103;-61
2022/12/12 13:51:59;;;;;;;7.82;5.18;;;23.10;37.50;;;;;;6079999;28;80753;-60
2022/12/12 13:54:59;;;;;;;7.95;4.85;;;23.00;38.10;;;;;;6075213;28;80552;-61
2022/12/12 14:01:00;;;;;;;7.47;4.82;;;22.90;38.20;;;;;;6068077;28;80386;-66
2022/12/12 14:04:01;;;;;;;7.35;4.80;;;22.90;38.00;;;;;;6072271;28;80701;-62
2022/12/12 14:07:01;;;;;;;7.43;5.15;;;22.80;38.30;;;;;;6073134;28;80375;-63
2022/12/12 14:10:02;;;;;;;6.25;4.45;;;22.80;38.30;;;;;;6075972;28;80404;-62
2022/12/12 14:13:02;;;;;;;8.02;5.45;;;22.80;38.20;;;;;;6063219;28;83656;-61
2022/12/12 14:16:03;;;;;;;7.50;4.82;;;22.70;38.10;;;;;;6064767;28;82322;-62
2022/12/12 14:19:03;;;;;;;6.60;4.20;;;22.70;38.30;;;;;;6067920;28;85832;-62
2022/12/12 14:22:04;;;;;;;8.27;5.32;;;22.70;38.30;;;;;;6068395;28;80254;-61
2022/12/12 14:25:04;;;;;;;7.82;4.80;;;22.70;37.90;;;;;;6052411;28;84702;-63
2022/12/12 14:28:05;;;;;;;7.97;5.07;;;22.60;38.50;;;;;;6066689;28;80360;-62
2022/12/12 14:31:06;;;;;;;7.43;5.22;;;22.60;38.70;;;;;;6065103;28;82162;-62
2022/12/12 14:34:06;;;;;;;8.07;5.43;;;22.60;38.60;;;;;;6073284;28;80955;-65
2022/12/12 14:37:07;;;;;;;8.15;5.65;;;22.50;38.30;;;;;;6062442;28;80618;-64
2022/12/12 14:40:07;;;;;;;10.65;5.45;;;22.50;38.40;;;;;;6071405;28;81349;-64
2022/12/12 14:43:08;;;;;;;8.95;5.70;;;22.50;39.20;;;;;;6084660;28;83695;-67
2022/12/12 14:46:08;;;;;;;7.68;5.43;;;22.50;38.90;;;;;;6079037;28;82293;-66
2022/12/12 14:49:09;;;;;;;7.60;5.50;;;22.50;39.10;;;;;;6067100;28;81325;-67
2022/12/12 14:52:09;;;;;;;7.93;5.90;;;22.50;39.00;;;;;;6080957;28;81177;-66
2022/12/12 14:55:10;;;;;;;8.45;5.78;;;22.40;38.90;;;;;;6080487;28;83306;-62
2022/12/12 14:58:10;;;;;;;9.70;5.72;;;22.40;40.00;;;;;;6078813;28;80441;-61
2022/12/12 15:01:11;;;;;;;7.30;5.57;;;22.40;40.50;;;;;;6078832;28;80491;-60
2022/12/12 15:04:11;;;;;;;10.23;5.47;;;22.50;41.10;;;;;;6062081;28;80900;-59
2022/12/12 15:07:12;;;;;;;10.55;5.82;;;22.50;41.00;;;;;;6084055;28;83896;-60
2022/12/12 15:10:12;;;;;;;11.10;6.25;;;22.50;41.40;;;;;;6084234;28;81230;-61
2022/12/12 15:13:13;;;;;;;8.88;5.68;;;22.50;40.80;;;;;;6078192;28;80858;-60
2022/12/12 15:16:13;;;;;;;7.43;5.28;;;22.50;40.70;;;;;;6068162;28;85057;-62
2022/12/12 15:19:14;;;;;;;10.07;6.20;;;22.50;40.90;;;;;;6076732;28;81895;-60
2022/12/12 15:22:15;;;;;;;7.22;5.38;;;22.50;40.80;;;;;;6074592;28;81348;-61
2022/12/12 15:25:15;;;;;;;13.65;6.03;;;22.60;40.70;;;;;;6079083;28;81488;-67
2022/12/12 15:28:16;;;;;;;9.93;5.72;;;22.60;40.40;;;;;;6072577;28;82529;-66
2022/12/12 15:31:17;;;;;;;9.48;5.60;;;22.60;40.20;;;;;;6078598;28;81464;-70
2022/12/12 15:34:18;;;;;;;6.80;4.90;;;22.60;40.00;;;;;;6070873;28;81886;-66
2022/12/12 15:37:19;;;;;;;8.85;5.55;;;22.60;40.10;;;;;;6073953;28;80436;-66
2022/12/12 15:40:20;;;;;;;8.23;5.15;;;22.70;39.80;;;;;;6074732;28;80893;-64
2022/12/12 15:43:22;;;;;;;8.98;5.55;;;22.70;39.30;;;;;;6077746;28;86169;-67
2022/12/12 15:46:22;;;;;;;6.85;5.05;;;22.80;38.80;;;;;;6077628;28;80563;-65
2022/12/12 15:49:23;;;;;;;7.38;4.72;;;22.80;38.20;;;;;;6079847;28;84947;-64
2022/12/12 15:52:23;;;;;;;7.03;5.20;;;22.90;37.80;;;;;;6079481;28;84946;-64
2022/12/12 15:55:24;;;;;;;6.63;4.30;;;22.90;37.50;;;;;;6080630;28;81017;-64